createdAt,value
2019-05-13T00:01:53.981Z,5.57
2019-05-13T00:04:24.219Z,5.49
2019-05-13T00:06:57.036Z,5.44
2019-05-13T00:09:24.837Z,5.42
2019-05-13T00:11:54.251Z,5.23
2019-05-13T00:14:23.997Z,5.33
2019-05-13T00:16:53.647Z,5.30
2019-05-13T00:22:00.412Z,5.04
2019-05-13T00:27:10.377Z,5.04
2019-05-13T00:29:39.761Z,4.95
2019-05-13T00:32:08.964Z,4.94
2019-05-13T00:34:37.914Z,4.91
2019-05-13T00:37:10.830Z,4.96
2019-05-13T00:39:37.793Z,4.94
2019-05-13T00:44:44.722Z,5.02
2019-05-13T00:47:13.830Z,4.86
2019-05-13T00:49:43.687Z,4.88
2019-05-13T00:52:14.255Z,4.92
2019-05-13T00:54:44.135Z,4.87
2019-05-13T00:57:13.393Z,4.84
2019-05-13T00:59:44.305Z,4.77
2019-05-13T01:04:53.536Z,4.68
2019-05-13T01:07:28.573Z,4.56
2019-05-13T01:09:53.865Z,4.58
2019-05-13T01:12:23.875Z,4.57
2019-05-13T01:17:34.016Z,4.62
2019-05-13T01:20:04.103Z,4.56
2019-05-13T01:25:14.625Z,4.55
2019-05-13T01:27:44.427Z,4.42
2019-05-13T01:30:13.840Z,4.41
2019-05-13T01:32:44.843Z,4.28
2019-05-13T01:35:14.953Z,4.24
2019-05-13T01:40:24.021Z,4.20
2019-05-13T01:45:30.501Z,4.15
2019-05-13T01:47:59.389Z,4.10
2019-05-13T01:50:28.399Z,4.05
2019-05-13T01:52:57.475Z,4.03
2019-05-13T01:55:26.498Z,4.00
2019-05-13T01:57:55.980Z,3.94
2019-05-13T02:03:05.328Z,3.88
2019-05-13T02:08:14.349Z,3.96
2019-05-13T02:13:34.320Z,3.75
2019-05-13T02:16:04.363Z,3.68
2019-05-13T02:18:34.133Z,3.74
2019-05-13T02:21:05.375Z,3.61
2019-05-13T02:26:14.291Z,3.72
2019-05-13T02:28:43.883Z,3.62
2019-05-13T02:31:18.879Z,3.58
2019-05-13T02:33:44.267Z,3.65
2019-05-13T02:38:53.161Z,3.62
2019-05-13T02:44:03.211Z,3.55
2019-05-13T02:46:33.733Z,3.44
2019-05-13T02:49:03.172Z,3.36
2019-05-13T02:51:32.942Z,3.38
2019-05-13T02:54:03.489Z,3.24
2019-05-13T02:56:33.266Z,3.25
2019-05-13T02:59:03.969Z,3.24
2019-05-13T03:01:34.143Z,3.22
2019-05-13T03:06:43.373Z,3.23
2019-05-13T03:11:48.905Z,3.18
2019-05-13T03:14:18.212Z,3.03
2019-05-13T03:16:53.302Z,3.03
2019-05-13T03:19:22.628Z,3.02
2019-05-13T03:21:53.506Z,2.93
2019-05-13T03:27:03.319Z,2.98
2019-05-13T03:29:33.085Z,2.90
2019-05-13T03:34:45.560Z,2.94
2019-05-13T03:37:15.459Z,2.85
2019-05-13T03:39:44.193Z,2.85
2019-05-13T03:42:13.651Z,2.86
2019-05-13T03:44:43.921Z,2.81
2019-05-13T03:47:13.244Z,2.80
2019-05-13T03:49:43.755Z,2.77
2019-05-13T03:54:58.079Z,2.70
2019-05-13T03:57:27.346Z,2.70
2019-05-13T03:59:56.496Z,2.67
2019-05-13T04:02:26.278Z,2.66
2019-05-13T04:04:58.962Z,2.64
2019-05-13T04:07:26.756Z,2.69
2019-05-13T04:09:55.966Z,2.61
2019-05-13T04:12:28.587Z,2.67
2019-05-13T04:17:42.524Z,2.74
2019-05-13T04:22:53.589Z,2.72
2019-05-13T04:28:09.378Z,2.76
2019-05-13T04:30:39.505Z,2.79
2019-05-13T04:33:12.954Z,2.79
2019-05-13T04:38:18.541Z,2.88
2019-05-13T04:43:25.310Z,3.00
2019-05-13T04:48:43.903Z,3.02
2019-05-13T04:51:13.583Z,2.99
2019-05-13T04:53:42.335Z,2.99
2019-05-13T04:56:13.670Z,3.07
2019-05-13T04:58:43.339Z,3.12
2019-05-13T05:02:14.407Z,3.19
2019-05-13T05:08:03.160Z,3.31
2019-05-13T05:11:38.499Z,3.34
2019-05-13T05:14:52.267Z,3.43
2019-05-13T05:18:02.583Z,3.53
2019-05-13T05:20:53.272Z,3.58
2019-05-13T05:24:22.626Z,3.69
2019-05-13T05:27:42.073Z,3.75
2019-05-13T05:30:52.797Z,3.77
2019-05-13T05:34:07.202Z,3.89
2019-05-13T05:37:31.436Z,3.98
2019-05-13T05:40:03.095Z,4.01
2019-05-13T05:42:34.743Z,4.13
2019-05-13T05:47:44.097Z,4.31
2019-05-13T05:50:13.018Z,4.29
2019-05-13T05:52:44.981Z,4.41
2019-05-13T05:55:14.134Z,4.48
2019-05-13T05:57:45.088Z,4.53
2019-05-13T06:00:14.337Z,4.61
2019-05-13T06:02:47.990Z,4.71
2019-05-13T06:05:16.975Z,4.79
2019-05-13T06:07:45.744Z,4.86
2019-05-13T06:10:14.737Z,4.95
2019-05-13T06:12:44.837Z,5.08
2019-05-13T06:15:13.971Z,5.17
2019-05-13T06:17:42.890Z,5.28
2019-05-13T06:20:13.446Z,5.35
2019-05-13T06:25:22.954Z,5.56
2019-05-13T06:27:51.207Z,5.51
2019-05-13T06:30:21.692Z,5.62
2019-05-13T06:32:52.473Z,5.76
2019-05-13T06:35:21.812Z,5.76
2019-05-13T06:40:31.883Z,6.07
2019-05-13T06:43:01.494Z,6.04
2019-05-13T06:45:31.705Z,6.11
2019-05-13T06:48:02.435Z,6.23
2019-05-13T06:50:32.309Z,6.34
2019-05-13T06:55:41.630Z,6.49
2019-05-13T06:58:11.393Z,6.58
2019-05-13T07:03:21.971Z,6.79
2019-05-13T07:05:52.602Z,6.82
2019-05-13T07:08:22.495Z,6.89
2019-05-13T07:10:51.607Z,6.94
2019-05-13T07:15:57.789Z,7.14
2019-05-13T07:18:26.414Z,7.19
2019-05-13T07:20:55.414Z,7.31
2019-05-13T07:23:24.582Z,7.45
2019-05-13T07:25:53.196Z,7.50
2019-05-13T07:31:02.330Z,7.83
2019-05-13T07:36:12.711Z,8.00
2019-05-13T07:38:42.527Z,8.20
2019-05-13T07:41:11.999Z,8.32
2019-05-13T07:46:18.816Z,8.56
2019-05-13T07:48:47.750Z,8.87
2019-05-13T07:53:54.236Z,9.11
2019-05-13T07:56:22.849Z,9.29
2019-05-13T07:58:52.404Z,9.60
2019-05-13T08:04:02.463Z,10.06
2019-05-13T08:06:32.517Z,10.21
2019-05-13T08:09:01.802Z,10.53
2019-05-13T08:11:36.885Z,10.66
2019-05-13T08:14:02.415Z,10.81
2019-05-13T08:16:32.361Z,11.28
2019-05-13T08:19:01.949Z,11.54
2019-05-13T08:24:08.781Z,11.91
2019-05-13T08:26:43.153Z,12.64
2019-05-13T08:29:08.381Z,12.72
2019-05-13T08:34:16.159Z,13.90
2019-05-13T08:36:45.248Z,13.84
2019-05-13T08:39:14.330Z,14.56
2019-05-13T08:41:43.199Z,14.89
2019-05-13T08:44:12.539Z,14.29
2019-05-13T08:46:41.643Z,14.69
2019-05-13T08:51:47.966Z,15.84
2019-05-13T08:56:55.416Z,16.24
2019-05-13T08:59:24.086Z,16.08
2019-05-13T09:01:53.063Z,16.26
2019-05-13T09:04:22.325Z,16.26
2019-05-13T09:06:52.398Z,16.05
2019-05-13T09:09:22.035Z,16.88
2019-05-13T09:11:51.642Z,17.25
2019-05-13T09:14:21.924Z,16.67
2019-05-13T09:16:52.564Z,16.85
2019-05-13T09:22:02.689Z,17.62
2019-05-13T09:24:36.658Z,17.60
2019-05-13T09:27:01.937Z,17.95
2019-05-13T09:29:32.124Z,18.47
2019-05-13T09:32:03.955Z,18.32
2019-05-13T09:34:32.979Z,18.21
2019-05-13T09:37:02.746Z,19.27
2019-05-13T09:39:32.382Z,17.84
2019-05-13T09:42:02.759Z,18.21
2019-05-13T09:44:32.953Z,18.04
2019-05-13T09:49:42.160Z,18.21
2019-05-13T09:52:11.999Z,18.13
2019-05-13T09:54:42.481Z,18.00
2019-05-13T09:57:12.346Z,18.46
2019-05-13T09:59:42.398Z,19.21
2019-05-13T10:02:12.487Z,19.67
2019-05-13T10:04:43.683Z,19.04
2019-05-13T10:07:12.588Z,18.70
2019-05-13T10:09:43.013Z,18.60
2019-05-13T10:12:12.444Z,18.57
2019-05-13T10:14:42.449Z,18.99
2019-05-13T10:17:13.126Z,18.69
2019-05-13T10:19:42.171Z,18.22
2019-05-13T10:22:12.011Z,18.82
2019-05-13T10:24:42.240Z,19.25
2019-05-13T10:27:12.360Z,19.50
2019-05-13T10:29:42.921Z,19.26
2019-05-13T10:32:12.098Z,19.47
2019-05-13T10:34:42.920Z,19.63
2019-05-13T10:37:12.520Z,20.01
2019-05-13T10:39:41.611Z,19.75
2019-05-13T10:42:12.025Z,19.28
2019-05-13T10:44:42.266Z,19.78
2019-05-13T10:47:12.030Z,19.76
2019-05-13T10:52:22.989Z,19.95
2019-05-13T10:57:31.843Z,20.27
2019-05-13T11:00:03.434Z,19.92
2019-05-13T11:05:14.192Z,19.44
2019-05-13T11:07:42.931Z,19.12
2019-05-13T11:10:14.384Z,19.62
2019-05-13T11:12:43.490Z,20.14
2019-05-13T11:15:13.571Z,19.67
2019-05-13T11:17:42.837Z,19.73
2019-05-13T11:20:12.446Z,20.07
2019-05-13T11:25:21.836Z,20.57
2019-05-13T11:27:52.457Z,20.02
2019-05-13T11:30:27.777Z,20.05
2019-05-13T11:35:34.130Z,19.00
2019-05-13T11:38:03.454Z,20.15
2019-05-13T11:40:32.190Z,20.36
2019-05-13T11:43:01.844Z,20.41
2019-05-13T11:45:31.564Z,20.13
2019-05-13T11:48:02.237Z,20.23
2019-05-13T11:50:31.363Z,20.14
2019-05-13T11:55:42.283Z,20.84
2019-05-13T11:58:13.922Z,20.45
2019-05-13T12:04:10.189Z,19.69
2019-05-13T12:06:45.918Z,19.50
2019-05-13T12:09:12.666Z,19.70
2019-05-13T12:11:40.282Z,19.77
2019-05-13T12:14:34.749Z,20.03
2019-05-13T12:19:18.556Z,20.27
2019-05-13T12:21:54.177Z,19.51
2019-05-13T12:24:22.765Z,19.76
2019-05-13T12:26:53.127Z,19.40
2019-05-13T12:29:22.090Z,20.53
2019-05-13T12:31:52.726Z,20.44
2019-05-13T12:34:23.010Z,20.09
2019-05-13T12:36:52.215Z,20.15
2019-05-13T12:39:23.906Z,20.29
2019-05-13T12:41:53.765Z,20.18
2019-05-13T12:44:23.137Z,20.43
2019-05-13T12:46:54.263Z,19.35
2019-05-13T12:49:31.465Z,20.07
2019-05-13T12:52:00.589Z,20.33
2019-05-13T12:54:26.190Z,20.55
2019-05-13T12:56:55.211Z,20.48
2019-05-13T12:59:23.942Z,19.92
2019-05-13T13:04:37.473Z,19.93
2019-05-13T13:07:06.401Z,20.11
2019-05-13T13:12:14.129Z,19.92
2019-05-13T13:14:44.286Z,19.70
2019-05-13T13:19:54.764Z,20.03
2019-05-13T13:22:25.382Z,20.63
2019-05-13T13:27:59.806Z,20.57
2019-05-13T13:32:46.421Z,20.53
2019-05-13T13:35:15.348Z,19.84
2019-05-13T13:37:45.940Z,19.77
2019-05-13T13:40:20.266Z,19.52
2019-05-13T13:42:46.194Z,19.32
2019-05-13T13:45:15.079Z,19.57
2019-05-13T13:47:45.685Z,19.40
2019-05-13T13:50:14.788Z,19.59
2019-05-13T13:55:25.772Z,20.35
2019-05-13T13:57:56.696Z,19.66
2019-05-13T14:00:38.182Z,19.76
2019-05-13T14:05:36.347Z,19.72
2019-05-13T14:08:05.684Z,20.11
2019-05-13T14:10:34.356Z,19.68
2019-05-13T14:13:04.864Z,19.76
2019-05-13T14:15:34.468Z,19.83
2019-05-13T14:18:03.550Z,20.02
2019-05-13T14:20:32.752Z,20.33
2019-05-13T14:23:02.737Z,20.21
2019-05-13T14:28:18.268Z,20.02
2019-05-13T14:30:47.010Z,19.99
2019-05-13T14:35:55.005Z,20.03
2019-05-13T14:38:24.820Z,19.66
2019-05-13T14:40:54.201Z,19.14
2019-05-13T14:43:23.541Z,19.92
2019-05-13T14:45:52.332Z,19.81
2019-05-13T14:48:22.324Z,19.60
2019-05-13T14:50:52.309Z,19.93
2019-05-13T14:53:21.479Z,19.49
2019-05-13T14:55:51.770Z,20.11
2019-05-13T15:01:11.203Z,19.98
2019-05-13T15:03:28.496Z,19.82
2019-05-13T15:05:57.671Z,19.82
2019-05-13T15:08:26.722Z,20.01
2019-05-13T15:13:36.378Z,19.43
2019-05-13T15:16:05.415Z,19.45
2019-05-13T15:18:34.334Z,19.63
2019-05-13T15:21:03.405Z,18.98
2019-05-13T15:23:32.199Z,19.88
2019-05-13T15:26:02.210Z,19.39
2019-05-13T15:31:16.706Z,19.44
2019-05-13T15:36:26.069Z,18.72
2019-05-13T15:38:54.719Z,18.70
2019-05-13T15:41:24.184Z,19.22
2019-05-13T15:43:53.105Z,19.16
2019-05-13T15:46:22.072Z,18.92
2019-05-13T15:48:51.502Z,18.77
2019-05-13T15:54:01.396Z,18.81
2019-05-13T15:56:31.262Z,18.62
2019-05-13T15:59:01.922Z,18.80
2019-05-13T16:01:30.215Z,19.04
2019-05-13T16:03:58.848Z,19.14
2019-05-13T16:06:28.184Z,18.63
2019-05-13T16:11:34.666Z,18.52
2019-05-13T16:14:03.427Z,18.24
2019-05-13T16:16:32.567Z,18.33
2019-05-13T16:19:01.329Z,17.47
2019-05-13T16:21:31.936Z,17.65
2019-05-13T16:24:02.552Z,17.49
2019-05-13T16:26:31.998Z,17.69
2019-05-13T16:31:43.262Z,17.60
2019-05-13T16:34:13.572Z,16.95
2019-05-13T16:36:43.281Z,16.82
2019-05-13T16:39:12.533Z,17.17
2019-05-13T16:44:22.425Z,17.22
2019-05-13T16:46:51.574Z,16.97
2019-05-13T16:51:58.157Z,16.96
2019-05-13T16:54:26.875Z,17.19
2019-05-13T16:56:55.642Z,17.19
2019-05-13T17:02:01.945Z,16.82
2019-05-13T17:04:32.144Z,16.74
2019-05-13T17:07:01.626Z,16.77
2019-05-13T17:09:32.301Z,16.74
2019-05-13T17:12:01.613Z,16.46
2019-05-13T17:17:07.832Z,16.29
2019-05-13T17:19:37.288Z,16.15
2019-05-13T17:24:45.731Z,16.26
2019-05-13T17:27:14.426Z,16.32
2019-05-13T17:29:43.244Z,15.82
2019-05-13T17:32:11.942Z,15.93
2019-05-13T17:34:43.584Z,15.89
2019-05-13T17:37:11.728Z,15.85
2019-05-13T17:39:41.523Z,15.73
2019-05-13T17:42:12.264Z,15.83
2019-05-13T17:44:45.884Z,15.77
2019-05-13T17:49:51.987Z,15.73
2019-05-13T17:52:22.119Z,15.37
2019-05-13T17:54:51.815Z,15.52
2019-05-13T17:57:21.590Z,15.46
2019-05-13T17:59:52.127Z,15.36
2019-05-13T18:02:20.901Z,15.37
2019-05-13T18:04:51.954Z,15.02
2019-05-13T18:07:21.482Z,15.01
2019-05-13T18:09:51.990Z,14.97
2019-05-13T18:12:22.329Z,14.79
2019-05-13T18:14:51.738Z,14.69
2019-05-13T18:17:21.536Z,14.65
2019-05-13T18:19:51.517Z,14.51
2019-05-13T18:25:02.612Z,14.54
2019-05-13T18:27:32.317Z,14.32
2019-05-13T18:30:02.135Z,14.32
2019-05-13T18:35:08.829Z,14.17
2019-05-13T18:37:37.909Z,14.17
2019-05-13T18:40:07.342Z,13.91
2019-05-13T18:45:13.650Z,13.88
2019-05-13T18:47:42.270Z,13.67
2019-05-13T18:50:11.628Z,13.67
2019-05-13T18:52:41.981Z,13.56
2019-05-13T18:55:12.411Z,13.53
2019-05-13T18:57:41.412Z,13.41
2019-05-13T19:00:11.725Z,13.20
2019-05-13T19:02:41.508Z,13.14
2019-05-13T19:05:11.981Z,13.13
2019-05-13T19:10:22.011Z,13.00
2019-05-13T19:15:31.757Z,12.69
2019-05-13T19:18:00.571Z,12.66
2019-05-13T19:20:31.217Z,12.55
2019-05-13T19:23:01.174Z,12.38
2019-05-13T19:25:31.399Z,12.33
2019-05-13T19:28:02.308Z,12.23
2019-05-13T19:33:17.403Z,12.21
2019-05-13T19:35:46.923Z,11.98
2019-05-13T19:38:16.410Z,11.97
2019-05-13T19:43:23.432Z,11.92
2019-05-13T19:45:52.142Z,11.83
2019-05-13T19:48:21.775Z,11.70
2019-05-13T19:50:52.144Z,11.61
2019-05-13T19:53:21.482Z,11.58
2019-05-13T19:55:52.004Z,11.61
2019-05-13T19:58:21.607Z,11.49
2019-05-13T20:03:33.226Z,11.45
2019-05-13T20:06:02.442Z,11.37
2019-05-13T20:08:32.087Z,11.29
2019-05-13T20:11:02.138Z,11.25
2019-05-13T20:13:31.419Z,11.10
2019-05-13T20:16:01.784Z,11.10
2019-05-13T20:18:32.010Z,11.04
2019-05-13T20:23:41.397Z,11.07
2019-05-13T20:26:10.670Z,10.98
2019-05-13T20:31:21.530Z,10.94
2019-05-13T20:33:51.580Z,10.72
2019-05-13T20:36:22.183Z,10.75
2019-05-13T20:38:51.623Z,10.71
2019-05-13T20:41:22.419Z,10.66
2019-05-13T20:43:52.105Z,10.52
2019-05-13T20:46:23.221Z,10.48
2019-05-13T20:48:52.127Z,10.40
2019-05-13T20:51:21.990Z,10.41
2019-05-13T20:53:51.801Z,10.33
2019-05-13T20:56:21.398Z,10.37
2019-05-13T20:58:51.597Z,10.31
2019-05-13T21:04:01.660Z,10.21
2019-05-13T21:06:31.573Z,10.21
2019-05-13T21:11:41.626Z,10.20
2019-05-13T21:14:10.029Z,9.92
2019-05-13T21:16:38.813Z,10.01
2019-05-13T21:19:07.573Z,10.04
2019-05-13T21:21:36.245Z,9.95
2019-05-13T21:26:45.956Z,9.88
2019-05-13T21:31:54.391Z,9.77
2019-05-13T21:34:23.714Z,9.70
2019-05-13T21:36:52.717Z,9.62
2019-05-13T21:39:23.487Z,9.46
2019-05-13T21:44:29.745Z,9.62
2019-05-13T21:46:59.386Z,9.47
2019-05-13T21:49:28.795Z,9.43
2019-05-13T21:51:57.886Z,9.37
2019-05-13T21:57:05.599Z,9.29
2019-05-13T21:59:34.297Z,9.22
2019-05-13T22:04:45.381Z,9.07
2019-05-13T22:07:14.144Z,8.89
2019-05-13T22:09:43.670Z,8.78
2019-05-13T22:12:13.394Z,8.88
2019-05-13T22:14:42.236Z,8.82
2019-05-13T22:17:12.278Z,8.63
2019-05-13T22:19:41.944Z,8.61
2019-05-13T22:22:11.624Z,8.60
2019-05-13T22:27:21.853Z,8.42
2019-05-13T22:32:35.645Z,8.35
2019-05-13T22:35:04.904Z,8.26
2019-05-13T22:37:33.572Z,8.28
2019-05-13T22:42:43.545Z,8.14
2019-05-13T22:45:12.522Z,8.17
2019-05-13T22:47:41.888Z,8.04
2019-05-13T22:50:12.198Z,7.98
2019-05-13T22:52:42.018Z,8.02
2019-05-13T22:55:11.470Z,7.91
2019-05-13T22:57:41.910Z,8.00
2019-05-13T23:02:57.137Z,8.01
2019-05-13T23:08:04.438Z,8.00
2019-05-13T23:13:10.695Z,7.91
2019-05-13T23:15:39.357Z,7.80
2019-05-13T23:18:08.537Z,7.77
2019-05-13T23:20:37.702Z,7.72
2019-05-13T23:23:07.208Z,7.66
2019-05-13T23:28:14.864Z,7.70
2019-05-13T23:33:24.725Z,7.50
2019-05-13T23:35:53.421Z,7.40
2019-05-13T23:41:06.878Z,7.44
2019-05-13T23:43:35.481Z,7.34
2019-05-13T23:46:04.335Z,7.28
2019-05-13T23:48:33.140Z,7.23
2019-05-13T23:51:01.813Z,7.15
2019-05-13T23:56:08.010Z,7.16
2019-05-13T23:58:37.042Z,7.16
